createdAt,value
2019-02-20T00:00:22.290Z,0
2019-02-20T00:01:22.239Z,0
2019-02-20T00:02:22.510Z,0
2019-02-20T00:03:22.221Z,0
2019-02-20T00:04:22.738Z,0
2019-02-20T00:05:22.752Z,0
2019-02-20T00:06:22.710Z,0
2019-02-20T00:07:22.708Z,0
2019-02-20T00:08:22.180Z,0
2019-02-20T00:09:22.440Z,0
2019-02-20T00:10:22.455Z,0
2019-02-20T00:11:22.661Z,0
2019-02-20T00:12:22.666Z,0
2019-02-20T00:13:22.399Z,0
2019-02-20T00:14:22.149Z,0
2019-02-20T00:15:22.375Z,0
2019-02-20T00:16:22.366Z,0
2019-02-20T00:17:22.353Z,0
2019-02-20T00:18:25.608Z,0
2019-02-20T00:19:22.745Z,0
2019-02-20T00:20:22.361Z,0
2019-02-20T00:21:22.563Z,0
2019-02-20T00:22:22.555Z,0
2019-02-20T00:23:22.555Z,0
2019-02-20T00:24:22.550Z,0
2019-02-20T00:25:22.306Z,0
2019-02-20T00:26:22.523Z,0
2019-02-20T00:27:22.542Z,0
2019-02-20T00:28:22.304Z,0
2019-02-20T00:29:22.501Z,0
2019-02-20T00:30:22.350Z,0
2019-02-20T00:31:22.509Z,0
2019-02-20T00:32:22.242Z,0
2019-02-20T00:33:22.201Z,0
2019-02-20T00:34:22.199Z,0
2019-02-20T00:35:22.204Z,0
2019-02-20T00:36:21.954Z,0
2019-02-20T00:37:22.430Z,0
2019-02-20T00:38:22.501Z,0
2019-02-20T00:39:22.419Z,0
2019-02-20T00:40:22.017Z,0
2019-02-20T00:41:22.161Z,0
2019-02-20T00:42:22.410Z,0
2019-02-20T00:43:21.902Z,0
2019-02-20T00:44:22.371Z,0
2019-02-20T00:45:22.433Z,0
2019-02-20T00:46:22.096Z,0
2019-02-20T00:47:21.849Z,0
2019-02-20T00:48:22.363Z,0
2019-02-20T00:49:22.083Z,0
2019-02-20T00:50:22.424Z,0
2019-02-20T00:51:22.297Z,0
2019-02-20T00:52:22.305Z,0
2019-02-20T00:53:22.300Z,0
2019-02-20T00:54:22.288Z,0
2019-02-20T00:55:22.300Z,0
2019-02-20T00:56:22.001Z,0
2019-02-20T00:57:21.995Z,0
2019-02-20T00:58:22.000Z,0
2019-02-20T00:59:24.136Z,0
2019-02-20T01:00:21.797Z,0
2019-02-20T01:01:22.247Z,0
2019-02-20T01:02:21.947Z,0
2019-02-20T01:03:21.966Z,0
2019-02-20T01:04:22.020Z,0
2019-02-20T01:05:22.032Z,0
2019-02-20T01:06:22.158Z,0
2019-02-20T01:07:21.926Z,0
2019-02-20T01:08:22.156Z,0
2019-02-20T01:09:22.135Z,0
2019-02-20T01:10:22.220Z,0
2019-02-20T01:11:21.925Z,0
2019-02-20T01:12:22.120Z,0
2019-02-20T01:13:21.599Z,0
2019-02-20T01:14:22.095Z,0
2019-02-20T01:15:22.183Z,0
2019-02-20T01:16:22.079Z,0
2019-02-20T01:17:22.071Z,0
2019-02-20T01:18:22.075Z,0
2019-02-20T01:19:21.947Z,0
2019-02-20T01:20:22.126Z,0
2019-02-20T01:21:22.035Z,0
2019-02-20T01:22:22.032Z,0
2019-02-20T01:23:21.771Z,0
2019-02-20T01:24:21.764Z,0
2019-02-20T01:25:21.591Z,0
2019-02-20T01:26:21.789Z,0
2019-02-20T01:27:21.755Z,0
2019-02-20T01:28:21.993Z,0
2019-02-20T01:29:21.467Z,0
2019-02-20T01:30:21.468Z,0
2019-02-20T01:31:21.954Z,0
2019-02-20T01:32:21.477Z,0
2019-02-20T01:33:23.527Z,0
2019-02-20T01:34:21.652Z,0
2019-02-20T01:35:21.957Z,0
2019-02-20T01:36:21.887Z,0
2019-02-20T01:37:21.643Z,0
2019-02-20T01:38:21.620Z,0
2019-02-20T01:39:21.849Z,0
2019-02-20T01:40:21.637Z,0
2019-02-20T01:41:21.374Z,0
2019-02-20T01:42:21.580Z,0
2019-02-20T01:43:21.842Z,0
2019-02-20T01:44:21.563Z,0
2019-02-20T01:45:21.637Z,0
2019-02-20T01:46:21.777Z,0
2019-02-20T01:47:21.274Z,0
2019-02-20T01:48:21.760Z,0
2019-02-20T01:49:21.284Z,0
2019-02-20T01:50:21.397Z,0
2019-02-20T01:51:21.759Z,0
2019-02-20T01:52:21.237Z,0
2019-02-20T01:53:21.488Z,0
2019-02-20T01:54:21.231Z,0
2019-02-20T01:55:21.744Z,0
2019-02-20T01:56:21.446Z,0
2019-02-20T01:57:21.689Z,0
2019-02-20T01:58:21.467Z,0
2019-02-20T01:59:21.166Z,0
2019-02-20T02:00:21.171Z,0
2019-02-20T02:01:21.399Z,0
2019-02-20T02:02:21.155Z,0
2019-02-20T02:03:21.393Z,0
2019-02-20T02:04:21.126Z,0
2019-02-20T02:05:22.640Z,0
2019-02-20T02:06:21.344Z,0
2019-02-20T02:07:20.834Z,0
2019-02-20T02:08:21.318Z,0
2019-02-20T02:09:21.054Z,0
2019-02-20T02:10:21.374Z,0
2019-02-20T02:11:21.033Z,0
2019-02-20T02:12:21.528Z,0
2019-02-20T02:13:21.308Z,0
2019-02-20T02:14:21.535Z,0
2019-02-20T02:15:27.839Z,0
2019-02-20T02:16:21.013Z,0
2019-02-20T02:17:21.226Z,0
2019-02-20T02:18:20.725Z,0
2019-02-20T02:19:21.463Z,0
2019-02-20T02:20:21.531Z,0
2019-02-20T02:21:21.237Z,0
2019-02-20T02:22:21.265Z,0
2019-02-20T02:23:26.669Z,0
2019-02-20T02:24:21.407Z,0
2019-02-20T02:25:21.427Z,0
2019-02-20T02:26:21.132Z,0
2019-02-20T02:27:21.415Z,0
2019-02-20T02:28:20.877Z,0
2019-02-20T02:29:20.889Z,0
2019-02-20T02:30:21.024Z,0
2019-02-20T02:31:20.844Z,0
2019-02-20T02:32:20.856Z,0
2019-02-20T02:33:21.059Z,0
2019-02-20T02:34:20.818Z,0
2019-02-20T02:35:21.089Z,0
2019-02-20T02:36:21.042Z,0
2019-02-20T02:37:20.784Z,0
2019-02-20T02:38:21.265Z,0
2019-02-20T02:39:21.257Z,0
2019-02-20T02:40:20.824Z,0
2019-02-20T02:41:20.730Z,0
2019-02-20T02:42:20.986Z,0
2019-02-20T02:43:21.266Z,0
2019-02-20T02:44:20.947Z,0
2019-02-20T02:45:20.842Z,0
2019-02-20T02:46:20.916Z,0
2019-02-20T02:47:20.491Z,0
2019-02-20T02:48:20.746Z,0
2019-02-20T02:49:20.932Z,0
2019-02-20T02:50:20.739Z,0
2019-02-20T02:51:21.210Z,0
2019-02-20T02:52:21.181Z,0
2019-02-20T02:53:30.227Z,0
2019-02-20T02:54:21.139Z,0
2019-02-20T02:55:20.867Z,0
2019-02-20T02:56:21.083Z,0
2019-02-20T02:57:21.070Z,0
2019-02-20T02:58:21.056Z,0
2019-02-20T02:59:20.835Z,0
2019-02-20T03:00:21.175Z,0
2019-02-20T03:01:20.591Z,0
2019-02-20T03:02:20.797Z,0
2019-02-20T03:03:21.015Z,0
2019-02-20T03:04:21.037Z,0
2019-02-20T03:05:20.812Z,0
2019-02-20T03:06:20.978Z,0
2019-02-20T03:07:20.702Z,0
2019-02-20T03:08:20.972Z,0
2019-02-20T03:09:20.684Z,0
2019-02-20T03:10:20.958Z,0
2019-02-20T03:11:20.659Z,0
2019-02-20T03:12:20.672Z,0
2019-02-20T03:13:20.421Z,0
2019-02-20T03:14:20.634Z,0
2019-02-20T03:15:20.644Z,0
2019-02-20T03:16:20.635Z,0
2019-02-20T03:17:20.101Z,0
2019-02-20T03:18:20.338Z,0
2019-02-20T03:19:20.360Z,0
2019-02-20T03:20:21.171Z,0
2019-02-20T03:21:20.906Z,0
2019-02-20T03:22:20.541Z,0
2019-02-20T03:23:20.808Z,0
2019-02-20T03:24:20.528Z,0
2019-02-20T03:25:20.531Z,0
2019-02-20T03:26:20.516Z,0
2019-02-20T03:27:20.486Z,0
2019-02-20T03:28:20.234Z,0
2019-02-20T03:29:20.484Z,0
2019-02-20T03:30:20.752Z,0
2019-02-20T03:31:20.762Z,0
2019-02-20T03:32:20.786Z,0
2019-02-20T03:33:20.733Z,0
2019-02-20T03:34:20.242Z,0
2019-02-20T03:35:20.184Z,0
2019-02-20T03:36:20.169Z,0
2019-02-20T03:37:20.649Z,0
2019-02-20T03:38:29.872Z,0
2019-02-20T03:39:20.440Z,0
2019-02-20T03:40:20.726Z,0
2019-02-20T03:41:20.367Z,0
2019-02-20T03:42:20.600Z,0
2019-02-20T03:43:20.324Z,0
2019-02-20T03:44:20.325Z,0
2019-02-20T03:45:20.413Z,0
2019-02-20T03:46:20.566Z,0
2019-02-20T03:47:22.430Z,0
2019-02-20T03:48:20.634Z,0
2019-02-20T03:49:20.259Z,0
2019-02-20T03:50:20.306Z,0
2019-02-20T03:51:20.253Z,0
2019-02-20T03:52:20.235Z,0
2019-02-20T03:53:19.993Z,0
2019-02-20T03:54:20.469Z,0
2019-02-20T03:55:19.856Z,0
2019-02-20T03:56:20.251Z,0
2019-02-20T03:57:20.430Z,0
2019-02-20T03:58:19.941Z,0
2019-02-20T03:59:19.912Z,0
2019-02-20T04:00:20.226Z,0
2019-02-20T04:01:20.399Z,0
2019-02-20T04:02:20.134Z,0
2019-02-20T04:03:20.348Z,0
2019-02-20T04:04:19.666Z,0
2019-02-20T04:05:20.131Z,0
2019-02-20T04:06:20.107Z,0
2019-02-20T04:07:19.599Z,0
2019-02-20T04:08:20.072Z,0
2019-02-20T04:09:20.172Z,0
2019-02-20T04:10:20.214Z,0
2019-02-20T04:11:20.295Z,0
2019-02-20T04:12:20.029Z,0
2019-02-20T04:13:20.015Z,0
2019-02-20T04:14:19.751Z,0
2019-02-20T04:15:20.076Z,0
2019-02-20T04:16:19.996Z,0
2019-02-20T04:17:19.972Z,0
2019-02-20T04:18:19.967Z,0
2019-02-20T04:19:19.964Z,0
2019-02-20T04:20:19.746Z,0
2019-02-20T04:21:20.208Z,0
2019-02-20T04:22:19.911Z,0
2019-02-20T04:23:19.933Z,0
2019-02-20T04:24:19.891Z,0
2019-02-20T04:25:19.466Z,0
2019-02-20T04:26:20.151Z,0
2019-02-20T04:27:19.388Z,0
2019-02-20T04:28:19.620Z,0
2019-02-20T04:29:20.082Z,0
2019-02-20T04:30:20.129Z,0
2019-02-20T04:31:19.578Z,0
2019-02-20T04:32:19.815Z,0
2019-02-20T04:33:19.799Z,0
2019-02-20T04:34:19.522Z,0
2019-02-20T04:35:19.593Z,0
2019-02-20T04:36:19.779Z,0
2019-02-20T04:37:19.492Z,0
2019-02-20T04:38:19.749Z,0
2019-02-20T04:39:19.818Z,0
2019-02-20T04:40:19.720Z,0
2019-02-20T04:41:20.052Z,0
2019-02-20T04:42:19.716Z,0
2019-02-20T04:43:19.429Z,0
2019-02-20T04:44:19.931Z,0
2019-02-20T04:45:20.004Z,0
2019-02-20T04:46:19.642Z,0
2019-02-20T04:47:19.159Z,0
2019-02-20T04:48:19.706Z,0
2019-02-20T04:49:19.665Z,0
2019-02-20T04:50:19.665Z,0
2019-02-20T04:51:19.868Z,0
2019-02-20T04:52:19.581Z,0
2019-02-20T04:53:19.326Z,0
2019-02-20T04:54:20.818Z,0
2019-02-20T04:55:19.426Z,0
2019-02-20T04:56:19.546Z,0
2019-02-20T04:57:19.537Z,0
2019-02-20T04:58:19.521Z,0
2019-02-20T04:59:19.507Z,0
2019-02-20T05:00:19.900Z,0
2019-02-20T05:01:19.739Z,0
2019-02-20T05:02:19.793Z,0
2019-02-20T05:03:19.759Z,0
2019-02-20T05:04:19.232Z,0
2019-02-20T05:05:19.775Z,0
2019-02-20T05:06:19.204Z,0
2019-02-20T05:07:19.456Z,0
2019-02-20T05:08:19.429Z,0
2019-02-20T05:09:19.416Z,0
2019-02-20T05:10:19.469Z,0
2019-02-20T05:11:19.209Z,0
2019-02-20T05:12:19.648Z,0
2019-02-20T05:13:19.410Z,0
2019-02-20T05:14:19.645Z,0
2019-02-20T05:15:19.421Z,0
2019-02-20T05:16:19.594Z,0
2019-02-20T05:17:19.613Z,0
2019-02-20T05:18:19.354Z,0
2019-02-20T05:19:19.305Z,0
2019-02-20T05:20:19.353Z,0
2019-02-20T05:21:19.460Z,0
2019-02-20T05:22:19.323Z,0
2019-02-20T05:23:19.540Z,0
2019-02-20T05:24:29.409Z,0
2019-02-20T05:25:19.031Z,0
2019-02-20T05:26:19.626Z,0
2019-02-20T05:27:19.242Z,0
2019-02-20T05:28:18.993Z,0
2019-02-20T05:29:19.228Z,0
2019-02-20T05:30:19.241Z,0
2019-02-20T05:31:21.339Z,0
2019-02-20T05:32:18.945Z,0
2019-02-20T05:33:18.912Z,0
2019-02-20T05:34:19.186Z,0
2019-02-20T05:35:18.927Z,0
2019-02-20T05:36:19.135Z,0
2019-02-20T05:37:18.653Z,0
2019-02-20T05:38:19.162Z,0
2019-02-20T05:39:18.925Z,0
2019-02-20T05:40:19.119Z,0
2019-02-20T05:41:19.376Z,0
2019-02-20T05:42:19.125Z,0
2019-02-20T05:43:19.108Z,0
2019-02-20T05:44:19.308Z,0
2019-02-20T05:45:19.077Z,0
2019-02-20T05:46:18.799Z,0
2019-02-20T05:47:19.288Z,0
2019-02-20T05:48:18.869Z,0
2019-02-20T05:49:19.394Z,0
2019-02-20T05:50:19.378Z,0
2019-02-20T05:51:19.269Z,0
2019-02-20T05:52:19.020Z,0
2019-02-20T05:53:19.237Z,0
2019-02-20T05:54:19.225Z,0
2019-02-20T05:55:18.815Z,0
2019-02-20T05:56:19.193Z,4
2019-02-20T05:57:18.678Z,4
2019-02-20T05:58:18.962Z,4
2019-02-20T05:59:18.988Z,0
2019-02-20T06:00:19.000Z,4
2019-02-20T06:01:19.198Z,4
2019-02-20T06:02:18.580Z,4
2019-02-20T06:03:18.912Z,4
2019-02-20T06:04:19.123Z,4
2019-02-20T06:05:19.181Z,8
2019-02-20T06:06:19.143Z,8
2019-02-20T06:07:19.101Z,12
2019-02-20T06:08:18.872Z,16
2019-02-20T06:09:19.084Z,16
2019-02-20T06:10:19.071Z,20
2019-02-20T06:11:21.599Z,24
2019-02-20T06:12:18.572Z,28
2019-02-20T06:13:19.038Z,32
2019-02-20T06:14:18.780Z,36
2019-02-20T06:15:18.609Z,44
2019-02-20T06:16:19.038Z,52
2019-02-20T06:17:18.740Z,56
2019-02-20T06:18:18.762Z,68
2019-02-20T06:19:18.720Z,76
2019-02-20T06:20:18.569Z,88
2019-02-20T06:21:21.169Z,96
2019-02-20T06:22:18.718Z,108
2019-02-20T06:23:18.779Z,124
2019-02-20T06:24:18.692Z,140
2019-02-20T06:25:19.071Z,152
2019-02-20T06:26:18.691Z,164
2019-02-20T06:27:18.672Z,180
2019-02-20T06:28:18.885Z,200
2019-02-20T06:29:18.884Z,220
2019-02-20T06:30:18.779Z,240
2019-02-20T06:31:18.612Z,256
2019-02-20T06:32:18.348Z,280
2019-02-20T06:33:18.856Z,304
2019-02-20T06:34:18.613Z,324
2019-02-20T06:35:18.398Z,352
2019-02-20T06:36:18.308Z,384
2019-02-20T06:37:18.806Z,404
2019-02-20T06:38:19.071Z,432
2019-02-20T06:39:18.791Z,464
2019-02-20T06:40:18.371Z,496
2019-02-20T06:41:18.764Z,520
2019-02-20T06:42:18.799Z,544
2019-02-20T06:43:18.497Z,564
2019-02-20T06:44:18.476Z,580
2019-02-20T06:45:18.477Z,596
2019-02-20T06:46:18.718Z,628
2019-02-20T06:47:18.460Z,652
2019-02-20T06:48:18.434Z,668
2019-02-20T06:49:18.701Z,700
2019-02-20T06:50:18.491Z,732
2019-02-20T06:51:18.443Z,760
2019-02-20T06:52:18.637Z,788
2019-02-20T06:53:18.662Z,808
2019-02-20T06:54:18.399Z,824
2019-02-20T06:55:18.198Z,844
2019-02-20T06:56:18.604Z,872
2019-02-20T06:57:18.398Z,900
2019-02-20T06:58:18.379Z,944
2019-02-20T06:59:18.801Z,976
2019-02-20T07:00:18.589Z,1000
2019-02-20T07:01:18.551Z,1024
2019-02-20T07:02:18.553Z,1056
2019-02-20T07:03:18.560Z,1100
2019-02-20T07:04:18.524Z,1152
2019-02-20T07:05:18.363Z,1200
2019-02-20T07:06:18.517Z,1240
2019-02-20T07:07:18.244Z,1248
2019-02-20T07:08:18.514Z,1260
2019-02-20T07:09:19.803Z,1292
2019-02-20T07:10:18.293Z,1328
2019-02-20T07:11:18.456Z,1376
2019-02-20T07:12:18.467Z,1396
2019-02-20T07:13:18.431Z,1408
2019-02-20T07:14:18.183Z,1420
2019-02-20T07:15:18.272Z,1484
2019-02-20T07:16:20.063Z,1576
2019-02-20T07:17:18.403Z,1652
2019-02-20T07:18:18.391Z,1680
2019-02-20T07:19:18.410Z,1676
2019-02-20T07:20:18.465Z,1688
2019-02-20T07:21:17.878Z,1740
2019-02-20T07:22:18.370Z,1840
2019-02-20T07:23:18.101Z,1940
2019-02-20T07:24:17.868Z,2016
2019-02-20T07:25:18.152Z,2052
2019-02-20T07:26:18.102Z,2080
2019-02-20T07:27:18.095Z,2124
2019-02-20T07:28:17.562Z,2140
2019-02-20T07:29:18.077Z,2124
2019-02-20T07:30:17.918Z,2060
2019-02-20T07:31:18.296Z,2036
2019-02-20T07:32:18.283Z,2104
2019-02-20T07:33:18.009Z,2240
2019-02-20T07:34:18.247Z,2396
2019-02-20T07:35:17.989Z,2520
2019-02-20T07:36:18.226Z,2644
2019-02-20T07:37:18.219Z,2752
2019-02-20T07:38:17.954Z,2864
2019-02-20T07:39:18.213Z,2944
2019-02-20T07:40:18.227Z,2988
2019-02-20T07:41:17.932Z,3004
2019-02-20T07:42:17.936Z,3056
2019-02-20T07:43:18.199Z,3124
2019-02-20T07:44:17.908Z,3184
2019-02-20T07:45:18.251Z,3216
2019-02-20T07:46:17.898Z,3256
2019-02-20T07:47:17.944Z,3288
2019-02-20T07:48:18.169Z,3328
2019-02-20T07:49:17.612Z,3320
2019-02-20T07:50:17.900Z,3304
2019-02-20T07:51:19.695Z,3240
2019-02-20T07:52:17.853Z,3176
2019-02-20T07:53:18.107Z,3208
2019-02-20T07:54:17.594Z,3388
2019-02-20T07:55:20.651Z,3604
2019-02-20T07:56:18.058Z,3728
2019-02-20T07:57:18.059Z,3808
2019-02-20T07:58:17.799Z,3908
2019-02-20T07:59:17.803Z,4024
2019-02-20T08:00:17.901Z,4152
2019-02-20T08:01:18.066Z,4224
2019-02-20T08:02:18.007Z,4292
2019-02-20T08:03:17.267Z,4352
2019-02-20T08:04:18.011Z,4404
2019-02-20T08:05:17.558Z,4492
2019-02-20T08:06:17.740Z,4584
2019-02-20T08:07:17.569Z,4488
2019-02-20T08:08:17.740Z,4456
2019-02-20T08:09:17.718Z,4488
2019-02-20T08:10:18.142Z,4492
2019-02-20T08:11:17.731Z,4532
2019-02-20T08:12:17.746Z,4420
2019-02-20T08:13:17.931Z,4192
2019-02-20T08:14:17.681Z,4076
2019-02-20T08:15:17.939Z,4004
2019-02-20T08:16:17.467Z,4004
2019-02-20T08:17:17.699Z,3924
2019-02-20T08:18:17.681Z,3848
2019-02-20T08:19:17.637Z,3912
2019-02-20T08:20:17.423Z,4216
2019-02-20T08:21:17.872Z,3896
2019-02-20T08:22:18.684Z,4064
2019-02-20T08:23:17.386Z,4276
2019-02-20T08:24:17.870Z,4888
2019-02-20T08:25:26.971Z,4908
2019-02-20T08:26:17.104Z,5284
2019-02-20T08:27:17.821Z,5492
2019-02-20T08:28:17.570Z,5664
2019-02-20T08:29:17.571Z,5880
2019-02-20T08:30:17.390Z,5912
2019-02-20T08:31:17.321Z,5768
2019-02-20T08:32:17.558Z,5052
2019-02-20T08:33:17.581Z,4864
2019-02-20T08:34:17.550Z,5068
2019-02-20T08:35:17.609Z,5880
2019-02-20T08:36:17.293Z,5948
2019-02-20T08:37:19.872Z,6056
2019-02-20T08:38:17.531Z,6116
2019-02-20T08:39:17.810Z,5548
2019-02-20T08:40:17.547Z,4916
2019-02-20T08:41:17.757Z,5076
2019-02-20T08:42:17.244Z,5260
2019-02-20T08:43:17.268Z,5020
2019-02-20T08:44:17.767Z,5192
2019-02-20T08:45:17.579Z,5708
2019-02-20T08:46:17.759Z,6044
2019-02-20T08:47:17.745Z,5996
2019-02-20T08:48:17.762Z,6192
2019-02-20T08:49:17.723Z,6164
2019-02-20T08:50:19.275Z,6220
2019-02-20T08:51:17.723Z,5516
2019-02-20T08:52:17.470Z,4868
2019-02-20T08:53:17.763Z,6376
2019-02-20T08:54:17.463Z,6580
2019-02-20T08:55:18.877Z,6012
2019-02-20T08:56:17.714Z,6236
2019-02-20T08:57:17.475Z,5824
2019-02-20T08:58:17.466Z,6728
2019-02-20T08:59:17.467Z,6632
2019-02-20T09:00:17.538Z,6768
2019-02-20T09:01:17.433Z,6768
2019-02-20T09:02:17.454Z,6800
2019-02-20T09:03:17.423Z,6568
2019-02-20T09:04:17.437Z,6140
2019-02-20T09:05:17.490Z,6120
2019-02-20T09:06:17.164Z,6692
2019-02-20T09:07:17.617Z,6036
2019-02-20T09:08:17.374Z,5556
2019-02-20T09:09:16.877Z,5280
2019-02-20T09:10:19.844Z,5436
2019-02-20T09:11:17.645Z,4932
2019-02-20T09:12:16.873Z,5136
2019-02-20T09:13:17.116Z,5552
2019-02-20T09:14:17.614Z,5364
2019-02-20T09:15:17.407Z,5504
2019-02-20T09:16:17.380Z,5780
2019-02-20T09:17:17.345Z,6264
2019-02-20T09:18:17.331Z,6868
2019-02-20T09:19:17.102Z,6496
2019-02-20T09:20:17.632Z,5820
2019-02-20T09:21:17.083Z,6680
2019-02-20T09:22:17.557Z,6820
2019-02-20T09:23:17.588Z,6804
2019-02-20T09:24:17.063Z,6768
2019-02-20T09:25:26.354Z,6860
2019-02-20T09:26:17.533Z,6928
2019-02-20T09:27:17.028Z,6884
2019-02-20T09:28:17.534Z,6556
2019-02-20T09:29:17.014Z,6092
2019-02-20T09:30:17.294Z,6044
2019-02-20T09:31:17.010Z,5432
2019-02-20T09:32:17.264Z,5060
2019-02-20T09:33:17.480Z,4992
2019-02-20T09:34:17.022Z,5244
2019-02-20T09:35:17.578Z,5296
2019-02-20T09:36:17.257Z,6320
2019-02-20T09:37:16.968Z,6892
2019-02-20T09:38:17.274Z,7048
2019-02-20T09:39:17.463Z,6928
2019-02-20T09:40:17.503Z,6368
2019-02-20T09:41:17.193Z,7076
2019-02-20T09:42:16.936Z,7072
2019-02-20T09:43:16.972Z,7128
2019-02-20T09:44:17.421Z,7144
2019-02-20T09:45:17.245Z,7096
2019-02-20T09:46:17.430Z,7144
2019-02-20T09:47:17.397Z,7148
2019-02-20T09:48:17.410Z,7156
2019-02-20T09:49:17.122Z,7176
2019-02-20T09:50:16.980Z,7144
2019-02-20T09:51:16.921Z,7112
2019-02-20T09:52:17.359Z,7112
2019-02-20T09:53:16.858Z,6976
2019-02-20T09:54:17.088Z,7044
2019-02-20T09:55:16.920Z,7000
2019-02-20T09:56:18.383Z,6964
2019-02-20T09:57:16.836Z,6944
2019-02-20T09:58:17.117Z,6808
2019-02-20T09:59:17.074Z,6720
2019-02-20T10:00:17.196Z,6804
2019-02-20T10:01:17.401Z,6768
2019-02-20T10:02:16.878Z,6788
2019-02-20T10:03:17.359Z,6740
2019-02-20T10:04:17.310Z,6608
2019-02-20T10:05:17.039Z,6600
2019-02-20T10:06:17.884Z,6676
2019-02-20T10:07:17.039Z,6664
2019-02-20T10:08:17.037Z,6596
2019-02-20T10:09:18.735Z,6860
2019-02-20T10:10:17.339Z,6812
2019-02-20T10:11:17.275Z,6492
2019-02-20T10:12:17.046Z,6500
2019-02-20T10:13:18.488Z,6500
2019-02-20T10:14:17.016Z,6664
2019-02-20T10:15:17.147Z,6872
2019-02-20T10:16:17.028Z,6888
2019-02-20T10:17:17.263Z,6892
2019-02-20T10:18:19.264Z,6144
2019-02-20T10:19:16.714Z,5624
2019-02-20T10:20:17.262Z,6948
2019-02-20T10:21:17.327Z,7236
2019-02-20T10:22:16.955Z,7032
2019-02-20T10:23:16.974Z,7192
2019-02-20T10:24:16.695Z,5376
2019-02-20T10:25:17.043Z,6356
2019-02-20T10:26:16.959Z,5920
2019-02-20T10:27:16.703Z,5576
2019-02-20T10:28:16.965Z,6128
2019-02-20T10:29:16.920Z,5544
2019-02-20T10:30:17.025Z,5420
2019-02-20T10:31:16.919Z,5876
2019-02-20T10:32:16.944Z,5536
2019-02-20T10:33:16.924Z,5140
2019-02-20T10:34:18.221Z,5088
2019-02-20T10:35:16.956Z,5036
2019-02-20T10:36:16.669Z,5092
2019-02-20T10:37:16.906Z,5116
2019-02-20T10:38:16.884Z,5104
2019-02-20T10:39:17.167Z,5112
2019-02-20T10:40:17.188Z,5128
2019-02-20T10:41:17.135Z,5200
2019-02-20T10:42:17.429Z,5480
2019-02-20T10:43:16.868Z,5196
2019-02-20T10:44:17.107Z,5236
2019-02-20T10:45:17.135Z,5236
2019-02-20T10:46:17.142Z,5148
2019-02-20T10:47:16.604Z,5092
2019-02-20T10:48:17.099Z,5100
2019-02-20T10:49:17.075Z,5120
2019-02-20T10:50:16.864Z,5180
2019-02-20T10:51:16.834Z,5272
2019-02-20T10:52:17.080Z,5320
2019-02-20T10:53:17.061Z,5340
2019-02-20T10:54:16.812Z,5356
2019-02-20T10:55:16.806Z,5376
2019-02-20T10:56:16.830Z,5380
2019-02-20T10:57:16.558Z,5440
2019-02-20T10:58:17.046Z,5508
2019-02-20T10:59:16.782Z,5576
2019-02-20T11:00:27.852Z,6088
2019-02-20T11:01:16.794Z,6220
2019-02-20T11:02:16.548Z,6120
2019-02-20T11:03:16.773Z,6148
2019-02-20T11:04:16.542Z,6340
2019-02-20T11:05:17.145Z,6044
2019-02-20T11:06:17.015Z,5964
2019-02-20T11:07:16.785Z,6072
2019-02-20T11:08:16.749Z,6248
2019-02-20T11:09:16.758Z,6340
2019-02-20T11:10:16.520Z,6460
2019-02-20T11:11:17.057Z,6492
2019-02-20T11:12:16.763Z,6436
2019-02-20T11:13:16.509Z,6572
2019-02-20T11:14:16.745Z,6692
2019-02-20T11:15:17.810Z,6584
2019-02-20T11:16:16.968Z,6828
2019-02-20T11:17:16.478Z,7000
2019-02-20T11:18:16.991Z,7000
2019-02-20T11:19:18.078Z,6816
2019-02-20T11:20:18.392Z,6632
2019-02-20T11:21:16.729Z,6592
2019-02-20T11:22:16.699Z,6688
2019-02-20T11:23:16.480Z,6608
2019-02-20T11:24:17.874Z,6552
2019-02-20T11:25:16.961Z,6568
2019-02-20T11:26:24.512Z,6476
2019-02-20T11:27:16.473Z,6424
2019-02-20T11:28:16.466Z,6352
2019-02-20T11:29:16.696Z,6304
2019-02-20T11:30:16.990Z,6288
2019-02-20T11:31:16.417Z,6244
2019-02-20T11:32:16.930Z,6212
2019-02-20T11:33:16.925Z,6224
2019-02-20T11:34:16.184Z,6188
2019-02-20T11:35:16.697Z,6184
2019-02-20T11:36:16.924Z,6208
2019-02-20T11:37:16.911Z,6196
2019-02-20T11:38:16.409Z,6300
2019-02-20T11:39:18.601Z,6456
2019-02-20T11:40:16.697Z,6504
2019-02-20T11:41:18.131Z,6564
2019-02-20T11:42:16.896Z,6580
2019-02-20T11:43:16.896Z,6672
2019-02-20T11:44:25.815Z,6796
2019-02-20T11:45:16.676Z,6856
2019-02-20T11:46:16.864Z,6864
2019-02-20T11:47:16.376Z,6908
2019-02-20T11:48:16.360Z,6972
2019-02-20T11:49:16.346Z,6948
2019-02-20T11:50:16.896Z,6912
2019-02-20T11:51:16.616Z,6848
2019-02-20T11:52:18.340Z,6788
2019-02-20T11:53:16.376Z,6740
2019-02-20T11:54:16.621Z,6704
2019-02-20T11:55:16.721Z,6728
2019-02-20T11:56:17.136Z,6756
2019-02-20T11:57:18.621Z,6816
2019-02-20T11:58:16.610Z,6908
2019-02-20T11:59:16.355Z,7092
2019-02-20T12:00:16.669Z,7152
2019-02-20T12:01:16.838Z,7304
2019-02-20T12:02:16.847Z,7448
2019-02-20T12:03:16.884Z,7448
2019-02-20T12:04:16.587Z,7512
2019-02-20T12:05:16.684Z,7360
2019-02-20T12:06:16.579Z,7416
2019-02-20T12:07:16.569Z,7536
2019-02-20T12:08:16.819Z,7364
2019-02-20T12:09:16.821Z,7516
2019-02-20T12:10:17.661Z,7432
2019-02-20T12:11:16.567Z,7512
2019-02-20T12:12:16.558Z,7532
2019-02-20T12:13:16.830Z,7584
2019-02-20T12:14:16.320Z,7456
2019-02-20T12:15:16.842Z,7304
2019-02-20T12:16:16.552Z,7280
2019-02-20T12:17:16.795Z,7356
2019-02-20T12:18:24.018Z,7164
2019-02-20T12:19:16.814Z,7092
2019-02-20T12:20:16.613Z,7036
2019-02-20T12:21:16.544Z,6728
2019-02-20T12:22:16.299Z,6524
2019-02-20T12:23:16.536Z,6464
2019-02-20T12:24:16.555Z,6480
2019-02-20T12:25:16.829Z,6396
2019-02-20T12:26:16.789Z,6316
2019-02-20T12:27:16.521Z,6320
2019-02-20T12:28:16.542Z,6224
2019-02-20T12:29:18.132Z,6220
2019-02-20T12:30:16.361Z,6240
2019-02-20T12:31:16.536Z,6416
2019-02-20T12:32:16.004Z,6404
2019-02-20T12:33:16.501Z,6616
2019-02-20T12:34:16.255Z,6624
2019-02-20T12:35:16.546Z,6924
2019-02-20T12:36:16.559Z,6632
2019-02-20T12:37:16.508Z,6420
2019-02-20T12:38:16.483Z,6380
2019-02-20T12:39:16.497Z,6160
2019-02-20T12:40:16.563Z,6368
2019-02-20T12:41:17.619Z,6528
2019-02-20T12:42:17.838Z,5856
2019-02-20T12:43:16.734Z,6252
2019-02-20T12:44:15.978Z,6408
2019-02-20T12:45:16.724Z,6384
2019-02-20T12:46:16.510Z,6304
2019-02-20T12:47:16.456Z,6372
2019-02-20T12:48:16.713Z,6204
2019-02-20T12:49:16.463Z,6020
2019-02-20T12:50:16.729Z,5640
2019-02-20T12:51:16.463Z,6124
2019-02-20T12:52:16.433Z,6156
2019-02-20T12:53:16.465Z,6124
2019-02-20T12:54:18.045Z,5824
2019-02-20T12:55:16.256Z,5940
2019-02-20T12:56:17.182Z,6024
2019-02-20T12:57:17.312Z,6008
2019-02-20T12:58:16.433Z,6128
2019-02-20T12:59:16.428Z,6156
2019-02-20T13:00:16.679Z,6184
2019-02-20T13:01:16.171Z,6212
2019-02-20T13:02:16.684Z,6148
2019-02-20T13:03:16.670Z,6200
2019-02-20T13:04:16.374Z,5996
2019-02-20T13:05:16.691Z,6032
2019-02-20T13:06:16.410Z,5964
2019-02-20T13:07:17.690Z,5980
2019-02-20T13:08:16.726Z,6004
2019-02-20T13:09:16.415Z,5816
2019-02-20T13:10:16.681Z,5824
2019-02-20T13:11:17.012Z,5744
2019-02-20T13:12:16.649Z,5692
2019-02-20T13:13:16.647Z,5684
2019-02-20T13:14:16.393Z,5596
2019-02-20T13:15:16.686Z,5500
2019-02-20T13:16:16.528Z,5496
2019-02-20T13:17:16.366Z,5568
2019-02-20T13:18:16.771Z,5656
2019-02-20T13:19:16.126Z,5552
2019-02-20T13:20:16.151Z,5072
2019-02-20T13:21:17.760Z,5112
2019-02-20T13:22:16.824Z,4960
2019-02-20T13:23:16.701Z,5360
2019-02-20T13:24:17.161Z,5144
2019-02-20T13:25:16.595Z,5272
2019-02-20T13:26:16.367Z,5320
2019-02-20T13:27:25.205Z,5116
2019-02-20T13:28:16.613Z,5208
2019-02-20T13:29:16.405Z,5376
2019-02-20T13:30:16.374Z,5372
2019-02-20T13:31:16.583Z,4904
2019-02-20T13:32:18.526Z,4948
2019-02-20T13:33:15.871Z,5036
2019-02-20T13:34:16.360Z,5132
2019-02-20T13:35:16.411Z,5384
2019-02-20T13:36:16.591Z,5184
2019-02-20T13:37:16.667Z,5268
2019-02-20T13:38:18.225Z,5160
2019-02-20T13:39:16.596Z,5124
2019-02-20T13:40:16.602Z,5072
2019-02-20T13:41:16.912Z,5132
2019-02-20T13:42:16.694Z,4948
2019-02-20T13:43:16.726Z,4968
2019-02-20T13:44:17.820Z,5480
2019-02-20T13:45:16.356Z,5140
2019-02-20T13:46:16.560Z,5132
2019-02-20T13:47:16.562Z,4828
2019-02-20T13:48:16.542Z,4892
2019-02-20T13:49:17.066Z,4892
2019-02-20T13:50:19.244Z,4832
2019-02-20T13:51:17.730Z,4796
2019-02-20T13:52:16.270Z,4824
2019-02-20T13:53:19.054Z,4880
2019-02-20T13:54:17.656Z,5276
2019-02-20T13:55:16.054Z,5408
2019-02-20T13:56:16.276Z,5316
2019-02-20T13:57:16.266Z,5520